createdAt,value
2022-08-20T00:01:35.943Z,19.10
2022-08-20T00:03:44.792Z,19.20
2022-08-20T00:05:57.652Z,18.43
2022-08-20T00:08:01.272Z,20.03
2022-08-20T00:10:06.922Z,17.97
2022-08-20T00:12:13.685Z,20.27
2022-08-20T00:14:16.754Z,18.97
2022-08-20T00:16:21.588Z,19.20
2022-08-20T00:18:25.121Z,20.47
2022-08-20T00:20:30.379Z,20.47
2022-08-20T00:22:33.352Z,20.63
2022-08-20T00:24:36.412Z,19.77
2022-08-20T00:26:52.368Z,19.40
2022-08-20T00:28:57.221Z,18.63
2022-08-20T00:31:00.803Z,19.80
2022-08-20T00:33:11.055Z,18.90
2022-08-20T00:35:15.756Z,18.63
2022-08-20T00:37:18.904Z,18.33
2022-08-20T00:39:21.981Z,19.10
2022-08-20T00:41:27.508Z,17.97
2022-08-20T00:43:35.118Z,18.60
2022-08-20T00:45:39.524Z,18.70
2022-08-20T00:47:51.058Z,18.90
2022-08-20T00:49:54.347Z,18.33
2022-08-20T00:51:59.847Z,19.10
2022-08-20T00:54:06.515Z,18.07
2022-08-20T00:56:11.410Z,18.07
2022-08-20T00:58:15.075Z,17.83
2022-08-20T01:00:22.073Z,18.43
2022-08-20T01:02:28.592Z,16.70
2022-08-20T01:04:34.621Z,17.00
2022-08-20T01:06:37.855Z,17.20
2022-08-20T01:08:42.568Z,16.03
2022-08-20T01:10:48.200Z,16.93
2022-08-20T01:12:55.580Z,17.73
2022-08-20T01:15:03.837Z,16.47
2022-08-20T01:17:09.212Z,17.47
2022-08-20T01:19:29.432Z,16.13
2022-08-20T01:21:34.281Z,17.73
2022-08-20T01:23:43.191Z,18.10
2022-08-20T01:25:50.195Z,16.27
2022-08-20T01:27:55.440Z,17.43
2022-08-20T01:29:59.274Z,16.90
2022-08-20T01:32:02.719Z,17.10
2022-08-20T01:34:08.387Z,18.73
2022-08-20T01:36:12.732Z,16.60
2022-08-20T01:38:16.012Z,16.53
2022-08-20T01:40:28.938Z,16.37
2022-08-20T01:42:58.915Z,16.77
2022-08-20T01:45:04.390Z,16.60
2022-08-20T01:47:15.931Z,17.17
2022-08-20T01:49:23.328Z,17.17
2022-08-20T01:51:28.730Z,15.73
2022-08-20T01:53:34.111Z,16.07
2022-08-20T01:55:38.316Z,16.83
2022-08-20T01:57:43.082Z,16.57
2022-08-20T01:59:46.577Z,17.77
2022-08-20T02:01:50.178Z,17.10
2022-08-20T02:03:54.162Z,17.17
2022-08-20T02:05:57.920Z,15.10
2022-08-20T02:08:01.122Z,15.03
2022-08-20T02:10:06.607Z,15.40
2022-08-20T02:12:11.073Z,14.80
2022-08-20T02:14:15.670Z,15.30
2022-08-20T02:16:18.986Z,14.57
2022-08-20T02:18:22.003Z,14.30
2022-08-20T02:20:29.247Z,14.73
2022-08-20T02:22:37.911Z,14.30
2022-08-20T02:24:41.515Z,14.67
2022-08-20T02:26:45.021Z,15.40
2022-08-20T02:28:49.464Z,15.33
2022-08-20T02:30:55.337Z,15.70
2022-08-20T02:32:58.939Z,14.97
2022-08-20T02:35:03.216Z,16.07
2022-08-20T02:37:07.530Z,14.60
2022-08-20T02:39:12.873Z,13.97
2022-08-20T02:41:16.403Z,14.50
2022-08-20T02:43:20.061Z,14.90
2022-08-20T02:45:23.738Z,14.57
2022-08-20T02:47:28.751Z,16.17
2022-08-20T02:49:31.805Z,14.63
2022-08-20T02:51:34.770Z,14.83
2022-08-20T02:53:39.612Z,14.80
2022-08-20T02:55:42.611Z,15.07
2022-08-20T02:57:45.965Z,14.60
2022-08-20T02:59:53.778Z,14.70
2022-08-20T03:02:00.440Z,13.37
2022-08-20T03:04:05.835Z,14.87
2022-08-20T03:06:10.199Z,14.97
2022-08-20T03:08:14.599Z,14.40
2022-08-20T03:10:18.456Z,14.20
2022-08-20T03:12:21.420Z,14.60
2022-08-20T03:14:24.677Z,12.97
2022-08-20T03:16:27.638Z,13.80
2022-08-20T03:18:36.073Z,15.13
2022-08-20T03:20:41.055Z,13.40
2022-08-20T03:22:44.081Z,13.93
2022-08-20T03:24:47.081Z,14.43
2022-08-20T03:26:50.186Z,14.57
2022-08-20T03:28:53.208Z,14.43
2022-08-20T03:30:57.903Z,13.17
2022-08-20T03:33:01.022Z,14.10
2022-08-20T03:35:04.743Z,13.73
2022-08-20T03:37:11.574Z,12.93
2022-08-20T03:39:15.431Z,13.83
2022-08-20T03:41:19.005Z,14.10
2022-08-20T03:43:22.156Z,14.73
2022-08-20T03:45:26.228Z,13.03
2022-08-20T03:47:29.374Z,13.53
2022-08-20T03:49:32.412Z,13.87
2022-08-20T03:51:56.373Z,11.83
2022-08-20T03:54:00.429Z,11.73
2022-08-20T03:56:06.163Z,11.40
2022-08-20T03:58:10.621Z,8.37
2022-08-20T04:00:15.646Z,8.40
2022-08-20T04:02:18.801Z,12.10
2022-08-20T04:04:22.257Z,13.67
2022-08-20T04:06:25.512Z,14.17
2022-08-20T04:08:30.396Z,12.67
2022-08-20T04:10:35.161Z,13.43
2022-08-20T04:12:40.718Z,13.37
2022-08-20T04:14:51.743Z,14.20
2022-08-20T04:16:54.800Z,13.10
2022-08-20T04:19:02.218Z,13.60
2022-08-20T04:21:06.446Z,15.00
2022-08-20T04:23:10.217Z,14.33
2022-08-20T04:25:16.066Z,13.00
2022-08-20T04:27:21.225Z,13.20
2022-08-20T04:29:25.908Z,13.07
2022-08-20T04:31:35.448Z,13.30
2022-08-20T04:33:38.660Z,12.10
2022-08-20T04:35:41.752Z,13.43
2022-08-20T04:37:46.124Z,13.23
2022-08-20T04:40:09.994Z,13.70
2022-08-20T04:42:12.290Z,13.03
2022-08-20T04:44:16.696Z,12.93
2022-08-20T04:46:19.708Z,14.20
2022-08-20T04:48:24.443Z,12.90
2022-08-20T04:50:27.560Z,12.30
2022-08-20T04:52:32.869Z,11.07
2022-08-20T04:54:35.842Z,11.07
2022-08-20T04:56:39.621Z,10.93
2022-08-20T04:58:47.665Z,10.50
2022-08-20T05:00:54.191Z,9.40
2022-08-20T05:02:57.299Z,7.60
2022-08-20T05:05:00.252Z,9.10
2022-08-20T05:07:03.269Z,6.53
2022-08-20T05:09:06.251Z,5.90
2022-08-20T05:11:34.365Z,6.43
2022-08-20T05:13:33.369Z,6.33
2022-08-20T05:15:37.008Z,5.70
2022-08-20T05:17:42.552Z,5.87
2022-08-20T05:19:46.578Z,5.80
2022-08-20T05:21:53.605Z,6.00
2022-08-20T05:23:56.637Z,6.00
2022-08-20T05:25:59.669Z,6.10
2022-08-20T05:28:12.511Z,5.03
2022-08-20T05:30:15.711Z,5.40
2022-08-20T05:32:18.712Z,5.53
2022-08-20T05:34:23.779Z,6.37
2022-08-20T05:36:26.969Z,5.73
2022-08-20T05:38:31.002Z,6.43
2022-08-20T05:40:34.485Z,6.97
2022-08-20T05:42:37.648Z,7.90
2022-08-20T05:44:42.057Z,8.83
2022-08-20T05:46:47.693Z,8.90
2022-08-20T05:48:50.671Z,14.93
2022-08-20T05:50:55.804Z,12.57
2022-08-20T05:52:58.897Z,13.60
2022-08-20T05:55:01.977Z,13.27
2022-08-20T05:57:05.464Z,13.20
2022-08-20T05:59:10.053Z,12.80
2022-08-20T06:01:13.102Z,12.93
2022-08-20T06:03:34.147Z,12.20
2022-08-20T06:05:37.192Z,12.60
2022-08-20T06:07:41.603Z,12.20
2022-08-20T06:09:44.624Z,12.87
2022-08-20T06:11:47.668Z,13.23
2022-08-20T06:13:50.648Z,12.27
2022-08-20T06:15:53.597Z,11.83
2022-08-20T06:17:58.499Z,11.93
2022-08-20T06:20:03.852Z,12.43
2022-08-20T06:22:19.689Z,13.20
2022-08-20T06:24:29.491Z,13.07
2022-08-20T06:26:34.412Z,13.37
2022-08-20T06:28:37.455Z,13.10
2022-08-20T06:30:40.717Z,12.87
2022-08-20T06:32:43.704Z,13.23
2022-08-20T06:34:49.787Z,13.53
2022-08-20T06:36:53.694Z,12.93
2022-08-20T06:38:58.365Z,13.27
2022-08-20T06:41:02.987Z,12.90
2022-08-20T06:43:09.823Z,13.50
2022-08-20T06:45:13.748Z,13.37
2022-08-20T06:47:18.457Z,13.37
2022-08-20T06:49:21.499Z,12.50
2022-08-20T06:51:24.513Z,12.73
2022-08-20T06:53:27.503Z,13.47
2022-08-20T06:55:30.600Z,13.67
2022-08-20T06:57:35.210Z,14.00
2022-08-20T06:59:38.208Z,13.50
2022-08-20T07:01:41.349Z,13.90
2022-08-20T07:03:54.490Z,13.70
2022-08-20T07:05:59.482Z,13.53
2022-08-20T07:08:02.604Z,13.70
2022-08-20T07:10:07.660Z,12.90
2022-08-20T07:12:10.898Z,13.70
2022-08-20T07:14:15.583Z,12.97
2022-08-20T07:16:18.597Z,13.70
2022-08-20T07:18:28.644Z,12.53
2022-08-20T07:20:33.331Z,11.90
2022-08-20T07:22:37.026Z,12.70
2022-08-20T07:24:41.543Z,11.73
2022-08-20T07:26:45.600Z,12.70
2022-08-20T07:28:48.713Z,11.07
2022-08-20T07:31:13.611Z,11.43
2022-08-20T07:33:17.622Z,9.67
2022-08-20T07:35:21.725Z,10.50
2022-08-20T07:37:24.973Z,10.60
2022-08-20T07:39:28.534Z,9.40
2022-08-20T07:41:34.579Z,9.10
2022-08-20T07:43:39.493Z,10.07
2022-08-20T07:45:43.057Z,8.77
2022-08-20T07:47:54.145Z,8.67
2022-08-20T07:49:57.152Z,8.23
2022-08-20T07:52:00.147Z,9.17
2022-08-20T07:54:03.134Z,8.00
2022-08-20T07:56:08.259Z,7.80
2022-08-20T07:58:12.737Z,7.70
2022-08-20T08:00:17.485Z,8.03
2022-08-20T08:02:20.763Z,8.00
2022-08-20T08:04:25.726Z,8.03
2022-08-20T08:06:31.407Z,7.97
2022-08-20T08:08:35.425Z,7.63
2022-08-20T08:10:38.655Z,8.00
2022-08-20T08:12:45.228Z,7.40
2022-08-20T08:14:49.384Z,8.60
2022-08-20T08:16:54.242Z,8.73
2022-08-20T08:18:58.434Z,7.60
2022-08-20T08:21:02.813Z,8.40
2022-08-20T08:23:05.931Z,7.80
2022-08-20T08:25:10.062Z,7.83
2022-08-20T08:27:13.520Z,8.73
2022-08-20T08:29:17.025Z,8.50
2022-08-20T08:31:20.126Z,9.50
2022-08-20T08:33:32.405Z,9.17
2022-08-20T08:35:35.570Z,8.77
2022-08-20T08:37:39.998Z,8.93
2022-08-20T08:39:43.170Z,8.67
2022-08-20T08:41:49.413Z,8.90
2022-08-20T08:43:54.081Z,8.23
2022-08-20T08:46:01.370Z,9.57
2022-08-20T08:48:05.514Z,9.30
2022-08-20T08:50:49.929Z,9.13
2022-08-20T08:52:52.058Z,8.70
2022-08-20T08:54:57.086Z,9.30
2022-08-20T08:57:01.076Z,8.53
2022-08-20T08:59:06.035Z,9.30
2022-08-20T09:01:53.295Z,9.67
2022-08-20T09:03:39.878Z,9.87
2022-08-20T09:05:47.960Z,10.00
2022-08-20T09:07:53.282Z,10.10
2022-08-20T09:09:57.499Z,9.90
2022-08-20T09:12:06.517Z,9.30
2022-08-20T09:14:09.499Z,9.03
2022-08-20T09:16:13.055Z,10.33
2022-08-20T09:18:16.000Z,9.10
2022-08-20T09:20:19.490Z,9.50
2022-08-20T09:22:26.595Z,8.67
2022-08-20T09:24:31.041Z,9.00
2022-08-20T09:26:38.579Z,10.30
2022-08-20T09:28:42.186Z,10.10
2022-08-20T09:30:45.587Z,9.90
2022-08-20T09:32:49.547Z,9.63
2022-08-20T09:34:56.235Z,10.00
2022-08-20T09:36:59.311Z,9.50
2022-08-20T09:39:03.113Z,9.30
2022-08-20T09:41:07.944Z,9.37
2022-08-20T09:43:10.969Z,8.97
2022-08-20T09:45:14.704Z,9.03
2022-08-20T09:47:18.302Z,7.97
2022-08-20T09:49:21.281Z,8.63
2022-08-20T09:51:24.418Z,7.50
2022-08-20T09:53:27.423Z,7.10
2022-08-20T09:55:34.994Z,6.77
2022-08-20T09:57:39.456Z,6.33
2022-08-20T09:59:42.569Z,5.30
2022-08-20T10:01:45.597Z,4.60
2022-08-20T10:03:49.864Z,5.10
2022-08-20T10:05:52.916Z,5.47
2022-08-20T10:07:56.179Z,4.50
2022-08-20T10:09:59.312Z,4.93
2022-08-20T10:12:02.347Z,5.00
2022-08-20T10:14:07.351Z,4.50
2022-08-20T10:16:10.495Z,4.67
2022-08-20T10:18:13.556Z,4.27
2022-08-20T10:20:18.318Z,4.47
2022-08-20T10:22:21.334Z,4.40
2022-08-20T10:24:24.711Z,4.30
2022-08-20T10:26:27.844Z,4.00
2022-08-20T10:28:30.916Z,4.60
2022-08-20T10:30:35.443Z,3.97
2022-08-20T10:32:38.458Z,3.27
2022-08-20T10:34:41.687Z,3.50
2022-08-20T10:36:44.765Z,3.23
2022-08-20T10:38:49.005Z,2.50
2022-08-20T10:40:52.321Z,2.10
2022-08-20T10:42:55.802Z,2.60
2022-08-20T10:44:58.857Z,2.70
2022-08-20T10:47:16.974Z,2.83
2022-08-20T10:49:20.069Z,2.73
2022-08-20T10:51:32.737Z,3.10
2022-08-20T10:53:36.166Z,3.20
2022-08-20T10:55:39.221Z,3.20
2022-08-20T10:57:43.628Z,4.00
2022-08-20T10:59:48.751Z,3.53
2022-08-20T11:01:51.835Z,2.77
2022-08-20T11:03:56.199Z,2.90
2022-08-20T11:05:59.298Z,2.70
2022-08-20T11:08:04.025Z,3.10
2022-08-20T11:10:13.600Z,2.70
2022-08-20T11:12:17.855Z,2.60
2022-08-20T11:14:20.830Z,2.30
2022-08-20T11:16:23.962Z,2.40
2022-08-20T11:18:26.990Z,2.40
2022-08-20T11:20:32.061Z,2.60
2022-08-20T11:22:35.120Z,2.53
2022-08-20T11:24:38.681Z,2.90
2022-08-20T11:26:41.784Z,3.20
2022-08-20T11:28:44.883Z,3.37
2022-08-20T11:30:50.027Z,3.47
2022-08-20T11:32:53.410Z,3.70
2022-08-20T11:34:56.452Z,3.83
2022-08-20T11:37:00.860Z,3.77
2022-08-20T11:39:04.073Z,4.00
2022-08-20T11:41:07.244Z,3.70
2022-08-20T11:43:14.777Z,4.30
2022-08-20T11:45:19.382Z,4.23
2022-08-20T11:47:24.764Z,4.30
2022-08-20T11:49:27.761Z,3.93
2022-08-20T11:51:30.802Z,3.87
2022-08-20T11:53:41.951Z,3.47
2022-08-20T11:55:45.100Z,3.67
2022-08-20T11:57:49.947Z,3.73
2022-08-20T11:59:54.240Z,3.80
2022-08-20T12:02:03.176Z,4.00
2022-08-20T12:04:06.695Z,3.57
2022-08-20T12:06:09.751Z,3.77
2022-08-20T12:08:26.451Z,2.80
2022-08-20T12:10:32.816Z,3.10
2022-08-20T12:12:35.773Z,2.40
2022-08-20T12:14:38.847Z,2.80
2022-08-20T12:16:41.873Z,2.70
2022-08-20T12:18:45.248Z,2.67
2022-08-20T12:20:48.263Z,2.47
2022-08-20T12:22:55.157Z,2.60
2022-08-20T12:24:58.597Z,2.80
2022-08-20T12:27:12.092Z,2.30
2022-08-20T12:29:15.131Z,3.00
2022-08-20T12:31:18.248Z,2.80
2022-08-20T12:33:21.243Z,3.30
2022-08-20T12:35:24.580Z,2.70
2022-08-20T12:37:29.968Z,2.97
2022-08-20T12:39:34.586Z,2.53
2022-08-20T12:41:37.708Z,3.10
2022-08-20T12:43:42.130Z,3.10
2022-08-20T12:45:45.202Z,3.17
2022-08-20T12:47:49.725Z,3.50
2022-08-20T12:49:55.370Z,3.30
2022-08-20T12:51:58.757Z,3.10
2022-08-20T12:54:01.733Z,3.40
2022-08-20T12:56:05.501Z,3.10
2022-08-20T12:58:10.356Z,3.60
2022-08-20T13:00:19.227Z,3.40
2022-08-20T13:02:22.487Z,3.13
2022-08-20T13:04:26.060Z,3.20
2022-08-20T13:06:29.064Z,3.10
2022-08-20T13:08:32.139Z,3.10
2022-08-20T13:10:37.122Z,2.40
2022-08-20T13:12:40.213Z,2.50
2022-08-20T13:14:43.673Z,2.40
2022-08-20T13:16:48.060Z,2.17
2022-08-20T13:18:56.339Z,2.83
2022-08-20T13:20:59.391Z,2.67
2022-08-20T13:23:02.695Z,3.40
2022-08-20T13:25:06.498Z,2.70
2022-08-20T13:27:11.286Z,2.27
2022-08-20T13:29:15.264Z,2.70
2022-08-20T13:31:18.290Z,2.37
2022-08-20T13:33:24.365Z,2.80
2022-08-20T13:35:27.673Z,3.40
2022-08-20T13:37:31.328Z,2.77
2022-08-20T13:39:34.607Z,3.00
2022-08-20T13:41:37.708Z,2.87
2022-08-20T13:43:40.695Z,2.83
2022-08-20T13:45:43.751Z,3.23
2022-08-20T13:47:47.167Z,3.10
2022-08-20T13:49:56.717Z,3.53
2022-08-20T13:51:59.825Z,3.60
2022-08-20T13:54:04.713Z,3.27
2022-08-20T13:56:08.458Z,3.20
2022-08-20T13:58:11.492Z,3.53
2022-08-20T14:00:18.215Z,3.53
2022-08-20T14:02:21.587Z,3.70
2022-08-20T14:04:24.704Z,3.20
2022-08-20T14:06:29.065Z,3.23
2022-08-20T14:08:32.118Z,2.60
2022-08-20T14:10:35.220Z,3.27
2022-08-20T14:12:38.312Z,2.90
2022-08-20T14:14:41.609Z,2.77
2022-08-20T14:16:44.631Z,3.07
2022-08-20T14:18:51.054Z,3.60
2022-08-20T14:20:55.811Z,2.60
2022-08-20T14:23:01.202Z,3.03
2022-08-20T14:25:06.219Z,2.87
2022-08-20T14:27:09.979Z,3.00
2022-08-20T14:29:13.070Z,2.60
2022-08-20T14:31:16.096Z,2.73
2022-08-20T14:33:19.084Z,2.47
2022-08-20T14:35:22.911Z,2.40
2022-08-20T14:37:27.495Z,2.20
2022-08-20T14:39:31.875Z,2.17
2022-08-20T14:41:35.126Z,2.83
2022-08-20T14:43:38.148Z,2.50
2022-08-20T14:45:42.361Z,2.40
2022-08-20T14:47:48.926Z,2.77
2022-08-20T14:49:59.570Z,2.20
2022-08-20T14:52:02.544Z,2.40
2022-08-20T14:54:05.898Z,2.30
2022-08-20T14:56:11.082Z,2.10
2022-08-20T14:58:15.023Z,2.20
2022-08-20T15:00:20.932Z,1.90
2022-08-20T15:02:24.098Z,1.87
2022-08-20T15:04:27.324Z,3.07
2022-08-20T15:06:31.141Z,2.20
2022-08-20T15:08:34.136Z,2.20
2022-08-20T15:10:37.491Z,2.07
2022-08-20T15:12:43.100Z,2.10
2022-08-20T15:14:48.178Z,1.80
2022-08-20T15:16:52.144Z,2.03
2022-08-20T15:18:56.522Z,2.17
2022-08-20T15:21:02.838Z,2.20
2022-08-20T15:23:06.468Z,1.97
2022-08-20T15:25:11.332Z,2.17
2022-08-20T15:27:22.318Z,2.00
2022-08-20T15:29:27.100Z,2.50
2022-08-20T15:31:30.145Z,2.20
2022-08-20T15:33:33.191Z,2.10
2022-08-20T15:35:36.774Z,2.50
2022-08-20T15:37:41.878Z,2.30
2022-08-20T15:39:45.673Z,2.47
2022-08-20T15:41:49.065Z,2.30
2022-08-20T15:43:52.012Z,2.30
2022-08-20T15:45:57.874Z,1.90
2022-08-20T15:48:03.618Z,2.10
2022-08-20T15:50:14.144Z,2.13
2022-08-20T15:52:18.089Z,2.43
2022-08-20T15:54:24.357Z,2.90
2022-08-20T15:56:42.031Z,2.77
2022-08-20T15:58:52.605Z,2.30
2022-08-20T16:01:15.347Z,2.57
2022-08-20T16:03:40.722Z,2.40
2022-08-20T16:05:47.652Z,2.30
2022-08-20T16:08:00.855Z,2.50
2022-08-20T16:10:15.672Z,2.30
2022-08-20T16:12:21.478Z,2.50
2022-08-20T16:14:26.984Z,2.43
2022-08-20T16:16:37.560Z,2.67
2022-08-20T16:18:41.307Z,2.47
2022-08-20T16:20:47.846Z,2.40
2022-08-20T16:22:53.197Z,2.50
2022-08-20T16:24:57.116Z,2.70
2022-08-20T16:27:10.421Z,2.70
2022-08-20T16:29:19.846Z,2.60
2022-08-20T16:31:25.883Z,2.40
2022-08-20T16:33:33.357Z,3.00
2022-08-20T16:35:39.375Z,2.60
2022-08-20T16:37:46.598Z,2.60
2022-08-20T16:39:56.275Z,2.50
2022-08-20T16:41:59.629Z,2.63
2022-08-20T16:44:13.174Z,2.33
2022-08-20T16:46:18.912Z,2.60
2022-08-20T16:48:22.174Z,2.97
2022-08-20T16:50:35.464Z,2.73
2022-08-20T16:52:40.075Z,3.00
2022-08-20T16:54:44.529Z,2.60
2022-08-20T16:56:50.664Z,2.50
2022-08-20T16:58:56.537Z,2.60
2022-08-20T17:01:09.350Z,2.67
2022-08-20T17:03:38.585Z,2.80
2022-08-20T17:05:47.972Z,2.50
2022-08-20T17:07:54.360Z,2.30
2022-08-20T17:10:11.641Z,2.03
2022-08-20T17:12:19.359Z,2.60
2022-08-20T17:14:22.364Z,2.30
2022-08-20T17:16:25.360Z,2.47
2022-08-20T17:18:31.021Z,2.20
2022-08-20T17:20:45.883Z,2.30
2022-08-20T17:22:52.175Z,3.07
2022-08-20T17:24:55.893Z,2.50
2022-08-20T17:27:01.581Z,2.50
2022-08-20T17:29:13.421Z,2.47
2022-08-20T17:31:21.212Z,2.63
2022-08-20T17:33:36.590Z,3.00
2022-08-20T17:35:42.996Z,2.60
2022-08-20T17:37:51.495Z,2.90
2022-08-20T17:40:08.021Z,2.60
2022-08-20T17:42:16.229Z,2.87
2022-08-20T17:44:22.568Z,2.70
2022-08-20T17:46:27.830Z,2.50
2022-08-20T17:48:34.269Z,2.60
2022-08-20T17:50:41.108Z,2.67
2022-08-20T17:52:49.273Z,2.60
2022-08-20T17:54:52.366Z,3.17
2022-08-20T17:56:59.308Z,2.37
2022-08-20T17:59:10.245Z,2.73
2022-08-20T18:01:15.677Z,2.77
2022-08-20T18:03:22.858Z,2.93
2022-08-20T18:05:26.165Z,2.90
2022-08-20T18:07:35.255Z,2.97
2022-08-20T18:09:44.672Z,2.73
2022-08-20T18:11:54.052Z,2.80
2022-08-20T18:14:10.659Z,2.80
2022-08-20T18:16:18.111Z,2.93
2022-08-20T18:18:27.471Z,2.70
2022-08-20T18:20:57.570Z,3.03
2022-08-20T18:23:03.565Z,3.27
2022-08-20T18:25:18.668Z,2.90
2022-08-20T18:27:25.216Z,2.83
2022-08-20T18:29:31.424Z,3.27
2022-08-20T18:31:41.199Z,3.70
2022-08-20T18:33:45.525Z,3.40
2022-08-20T18:35:49.835Z,3.57
2022-08-20T18:37:53.352Z,3.70
2022-08-20T18:40:16.009Z,3.77
2022-08-20T18:42:30.373Z,3.60
2022-08-20T18:44:44.315Z,3.73
2022-08-20T18:46:53.697Z,3.57
2022-08-20T18:48:59.420Z,4.20
2022-08-20T18:51:04.722Z,4.30
2022-08-20T18:53:11.905Z,4.10
2022-08-20T18:55:30.338Z,4.60
2022-08-20T18:57:41.359Z,3.80
2022-08-20T18:59:57.151Z,4.00
2022-08-20T19:02:00.843Z,3.77
2022-08-20T19:04:16.316Z,4.10
2022-08-20T19:06:30.180Z,3.80
2022-08-20T19:08:40.511Z,3.47
2022-08-20T19:10:49.384Z,3.17
2022-08-20T19:13:25.907Z,3.30
2022-08-20T19:15:29.319Z,3.30
2022-08-20T19:17:55.318Z,3.83
2022-08-20T19:20:02.485Z,3.80
2022-08-20T19:22:05.889Z,3.90
2022-08-20T19:24:09.739Z,3.27
2022-08-20T19:26:25.957Z,3.77
2022-08-20T19:28:31.403Z,4.00
2022-08-20T19:30:37.294Z,3.60
2022-08-20T19:32:46.317Z,3.60
2022-08-20T19:34:53.080Z,3.50
2022-08-20T19:36:59.519Z,3.70
2022-08-20T19:39:15.382Z,3.70
2022-08-20T19:41:26.750Z,3.43
2022-08-20T19:43:42.833Z,3.13
2022-08-20T19:45:47.769Z,3.20
2022-08-20T19:47:58.138Z,3.50
2022-08-20T19:50:15.361Z,3.40
2022-08-20T19:52:27.759Z,3.40
2022-08-20T19:54:31.276Z,3.40
2022-08-20T19:56:41.813Z,3.70
2022-08-20T19:58:45.535Z,3.43
2022-08-20T20:00:50.601Z,3.93
2022-08-20T20:02:53.929Z,4.40
2022-08-20T20:04:57.851Z,3.90
2022-08-20T20:07:01.286Z,3.97
2022-08-20T20:09:07.342Z,3.80
2022-08-20T20:11:17.839Z,3.83
2022-08-20T20:13:23.228Z,3.60
2022-08-20T20:15:27.944Z,4.00
2022-08-20T20:17:34.916Z,4.33
2022-08-20T20:19:46.098Z,3.83
2022-08-20T20:21:53.252Z,3.90
2022-08-20T20:23:59.287Z,3.97
2022-08-20T20:26:04.412Z,4.53
2022-08-20T20:28:11.462Z,4.03
2022-08-20T20:30:23.066Z,4.17
2022-08-20T20:32:26.352Z,3.90
2022-08-20T20:34:31.774Z,3.93
2022-08-20T20:36:38.917Z,4.33
2022-08-20T20:38:53.868Z,3.93
2022-08-20T20:40:59.021Z,4.17
2022-08-20T20:43:05.984Z,4.20
2022-08-20T20:45:20.517Z,4.07
2022-08-20T20:47:26.561Z,4.10
2022-08-20T20:49:32.472Z,4.80
2022-08-20T20:51:40.046Z,4.83
2022-08-20T20:53:53.083Z,4.30
2022-08-20T20:55:58.459Z,4.60
2022-08-20T20:58:02.737Z,4.57
2022-08-20T21:00:07.658Z,4.97
2022-08-20T21:02:12.215Z,4.80
2022-08-20T21:04:15.255Z,4.23
2022-08-20T21:06:18.787Z,3.90
2022-08-20T21:08:21.958Z,4.50
2022-08-20T21:10:27.412Z,3.80
2022-08-20T21:12:30.605Z,3.97
2022-08-20T21:14:33.720Z,3.70
2022-08-20T21:16:36.970Z,4.23
2022-08-20T21:18:41.469Z,3.63
2022-08-20T21:20:44.874Z,4.17
2022-08-20T21:22:47.950Z,4.40
2022-08-20T21:24:51.498Z,4.40
2022-08-20T21:26:55.302Z,4.53
2022-08-20T21:28:58.412Z,4.60
2022-08-20T21:31:02.002Z,4.40
2022-08-20T21:33:05.090Z,4.87
2022-08-20T21:35:11.273Z,4.63
2022-08-20T21:37:14.504Z,4.33
2022-08-20T21:39:17.831Z,4.83
2022-08-20T21:41:29.758Z,4.83
2022-08-20T21:43:33.382Z,4.40
2022-08-20T21:45:38.295Z,4.27
2022-08-20T21:47:41.846Z,4.13
2022-08-20T21:49:44.939Z,4.97
2022-08-20T21:51:50.104Z,4.77
2022-08-20T21:53:53.133Z,5.00
2022-08-20T21:55:56.315Z,4.70
2022-08-20T21:57:59.807Z,4.30
2022-08-20T22:00:06.291Z,3.93
2022-08-20T22:02:09.508Z,4.33
2022-08-20T22:04:12.944Z,5.37
2022-08-20T22:06:15.925Z,5.00
2022-08-20T22:08:21.267Z,5.13
2022-08-20T22:10:29.063Z,4.60
2022-08-20T22:12:32.147Z,4.53
2022-08-20T22:14:35.186Z,4.80
2022-08-20T22:16:38.335Z,4.70
2022-08-20T22:18:46.555Z,4.60
2022-08-20T22:20:49.660Z,4.93
2022-08-20T22:22:53.048Z,4.70
2022-08-20T22:24:57.596Z,4.83
2022-08-20T22:27:01.281Z,4.87
2022-08-20T22:29:04.814Z,4.63
2022-08-20T22:31:08.240Z,4.40
2022-08-20T22:33:15.238Z,4.23
2022-08-20T22:35:18.256Z,5.30
2022-08-20T22:37:21.380Z,4.80
2022-08-20T22:39:24.391Z,4.47
2022-08-20T22:41:29.271Z,4.80
2022-08-20T22:43:32.282Z,4.83
2022-08-20T22:45:36.123Z,5.50
2022-08-20T22:47:39.296Z,4.63
2022-08-20T22:49:44.282Z,4.33
2022-08-20T22:51:47.312Z,4.90
2022-08-20T22:53:50.423Z,5.37
2022-08-20T22:55:54.246Z,5.17
2022-08-20T22:57:59.668Z,4.77
2022-08-20T23:00:06.272Z,4.67
2022-08-20T23:02:12.884Z,4.43
2022-08-20T23:04:23.299Z,4.57
2022-08-20T23:06:26.912Z,4.60
2022-08-20T23:08:30.231Z,4.47
2022-08-20T23:10:38.029Z,4.23
2022-08-20T23:12:41.086Z,4.47
2022-08-20T23:14:45.619Z,4.40
2022-08-20T23:16:59.160Z,4.67
2022-08-20T23:19:02.553Z,5.10
2022-08-20T23:21:05.768Z,4.47
2022-08-20T23:23:08.972Z,3.87
2022-08-20T23:25:12.871Z,4.43
2022-08-20T23:27:18.737Z,4.43
2022-08-20T23:29:25.526Z,4.50
2022-08-20T23:31:30.449Z,4.67
2022-08-20T23:33:33.414Z,4.20
2022-08-20T23:35:38.108Z,5.07
2022-08-20T23:37:43.063Z,4.37
2022-08-20T23:39:46.514Z,5.00
2022-08-20T23:41:49.672Z,4.37
2022-08-20T23:43:52.729Z,4.57
2022-08-20T23:45:56.611Z,4.83
2022-08-20T23:48:01.139Z,4.53
2022-08-20T23:50:04.944Z,4.20
2022-08-20T23:52:08.085Z,5.07
2022-08-20T23:54:11.089Z,4.77
2022-08-20T23:56:14.385Z,4.77
2022-08-20T23:58:17.510Z,4.80
